Time;durP1;ratioP1;P1;durP2;ratioP2;P2;SDS_P1;SDS_P2;PMS_P1;PMS_P2;Temp;Humidity;BMP_temperature;BMP_pressure;BME280_temperature;BME280_humidity;BME280_pressure;Samples;Min_cycle;Max_cycle;Signal;HPM_P1;HPM_P2
2022/12/04 00:01:37;0.00;0.00;0.62;0.00;0.00;0.62;5.80;2.60;;;20.60;23.90;;;;;;2235388;62;20777;-65
2022/12/04 00:04:23;0.00;0.00;0.62;0.00;0.00;0.62;2.90;2.23;;;20.50;23.80;;;;;;2235809;62;20382;-64
2022/12/04 00:07:08;0.00;0.00;0.62;0.00;0.00;0.62;3.03;2.40;;;20.60;23.90;;;;;;2235844;62;20382;-64
2022/12/04 00:09:53;0.00;0.00;0.62;0.00;0.00;0.62;2.90;2.07;;;20.60;23.90;;;;;;2235509;62;20395;-65
2022/12/04 00:12:37;0.00;0.00;0.62;0.00;0.00;0.62;3.20;2.40;;;20.50;23.80;;;;;;2235503;61;20815;-65
2022/12/04 00:15:22;0.00;0.00;0.62;0.00;0.00;0.62;2.93;2.50;;;20.60;23.90;;;;;;2235772;62;20423;-65
2022/12/04 00:18:07;0.00;0.00;0.62;0.00;0.00;0.62;3.03;2.67;;;20.50;23.90;;;;;;2235369;62;20366;-64
2022/12/04 00:20:52;0.00;0.00;0.62;0.00;0.00;0.62;3.93;2.67;;;20.60;23.90;;;;;;2235094;62;20458;-65
2022/12/04 00:23:38;0.00;0.00;0.62;0.00;0.00;0.62;2.80;2.17;;;20.60;23.90;;;;;;2625091;46;20391;-65
2022/12/04 00:26:27;0.00;0.00;0.62;0.00;0.00;0.62;2.83;2.30;;;20.60;23.90;;;;;;2231791;62;20371;-65
2022/12/04 00:29:12;0.00;0.00;0.62;0.00;0.00;0.62;3.47;2.37;;;20.60;24.00;;;;;;2231848;62;20447;-65
2022/12/04 00:31:57;0.00;0.00;0.62;0.00;0.00;0.62;2.90;1.97;;;20.60;23.90;;;;;;2231292;62;20387;-65
2022/12/04 00:34:42;0.00;0.00;0.62;0.00;0.00;0.62;2.73;2.30;;;20.60;23.90;;;;;;2231504;62;20367;-64
2022/12/04 00:37:28;0.00;0.00;0.62;0.00;0.00;0.62;3.30;2.40;;;20.60;23.90;;;;;;2231625;62;20358;-65
2022/12/04 00:40:13;0.00;0.00;0.62;0.00;0.00;0.62;3.17;2.67;;;20.60;24.00;;;;;;2231240;62;20900;-64
2022/12/04 00:42:58;0.00;0.00;0.62;0.00;0.00;0.62;3.30;2.23;;;20.60;24.00;;;;;;2231879;62;20462;-64
2022/12/04 00:45:42;0.00;0.00;0.62;0.00;0.00;0.62;3.93;3.20;;;20.60;24.00;;;;;;2231605;62;20363;-65
2022/12/04 00:48:27;0.00;0.00;0.62;0.00;0.00;0.62;4.67;3.50;;;20.60;23.90;;;;;;2231403;62;20394;-65
2022/12/04 00:51:15;0.00;0.00;0.62;0.00;0.00;0.62;4.50;3.10;;;20.60;23.90;;;;;;2228434;62;20384;-64
2022/12/04 00:54:01;0.00;0.00;0.62;0.00;0.00;0.62;5.30;3.63;;;20.60;23.90;;;;;;2231355;62;21001;-65
2022/12/04 00:56:46;0.00;0.00;0.62;0.00;0.00;0.62;5.90;4.10;;;20.60;23.80;;;;;;2231564;62;20395;-65
2022/12/04 00:59:30;0.00;0.00;0.62;0.00;0.00;0.62;5.70;4.30;;;20.60;23.90;;;;;;2232130;62;20362;-65
2022/12/04 01:02:15;0.00;0.00;0.62;0.00;0.00;0.62;6.03;4.83;;;20.60;23.80;;;;;;2231423;62;20880;-65
2022/12/04 01:05:00;0.00;0.00;0.62;0.00;0.00;0.62;8.63;6.30;;;20.50;23.70;;;;;;2232072;62;20948;-65
2022/12/04 01:07:45;0.00;0.00;0.62;0.00;0.00;0.62;8.60;6.53;;;20.50;23.70;;;;;;2231680;62;20399;-65
2022/12/04 01:10:31;0.00;0.00;0.62;0.00;0.00;0.62;9.70;6.73;;;20.50;23.60;;;;;;2231531;62;20779;-65
2022/12/04 01:13:15;0.00;0.00;0.62;0.00;0.00;0.62;10.00;7.20;;;20.50;23.60;;;;;;2232432;62;20426;-65
2022/12/04 01:16:00;0.00;0.00;0.62;0.00;0.00;0.62;11.47;8.17;;;20.50;23.50;;;;;;2232071;62;20892;-65
2022/12/04 01:18:45;0.00;0.00;0.62;0.00;0.00;0.62;9.70;6.90;;;20.50;23.50;;;;;;2232511;62;20512;-65
2022/12/04 01:21:29;0.00;0.00;0.62;0.00;0.00;0.62;13.00;8.40;;;20.50;23.40;;;;;;2232663;62;20427;-65
2022/12/04 01:24:14;0.00;0.00;0.62;0.00;0.00;0.62;13.20;8.80;;;20.50;23.40;;;;;;2232201;62;20387;-65
2022/12/04 01:27:00;0.00;0.00;0.62;0.00;0.00;0.62;11.03;8.60;;;20.40;23.20;;;;;;2232658;62;20802;-65
2022/12/04 01:29:45;0.00;0.00;0.62;0.00;0.00;0.62;11.37;9.13;;;20.50;23.30;;;;;;2232218;62;20932;-65
2022/12/04 01:32:30;0.00;0.00;0.62;0.00;0.00;0.62;13.87;11.00;;;20.50;23.20;;;;;;2231793;62;20451;-65
2022/12/04 01:35:14;0.00;0.00;0.62;0.00;0.00;0.62;12.30;10.33;;;20.50;23.20;;;;;;2232564;62;20395;-65
2022/12/04 01:37:59;0.00;0.00;0.62;0.00;0.00;0.62;14.27;10.13;;;20.40;23.00;;;;;;2231737;62;20831;-65
2022/12/04 01:40:44;0.00;0.00;0.62;0.00;0.00;0.62;15.10;10.33;;;20.50;23.10;;;;;;2232204;62;20367;-65
2022/12/04 01:43:32;0.00;0.00;0.62;0.00;0.00;0.62;14.00;11.30;;;20.40;23.00;;;;;;2232568;62;20386;-65
2022/12/04 01:46:17;0.00;0.00;0.62;0.00;0.00;0.62;14.20;10.83;;;20.40;23.00;;;;;;2231889;62;20379;-65
2022/12/04 01:49:02;0.00;0.00;0.62;0.00;0.00;0.62;14.00;11.17;;;20.40;23.00;;;;;;2232610;62;20378;-65
2022/12/04 01:51:51;0.00;0.00;0.62;0.00;0.00;0.62;13.57;9.47;;;20.30;22.90;;;;;;2231975;62;20379;-65
2022/12/04 01:54:41;0.00;0.00;0.62;0.00;0.00;0.62;14.43;10.20;;;20.40;23.00;;;;;;2231793;62;20375;-65
2022/12/04 01:57:29;0.00;0.00;0.62;0.00;0.00;0.62;16.10;10.93;;;20.30;22.90;;;;;;2232481;62;20893;-65
2022/12/04 02:00:17;0.00;0.00;0.62;0.00;0.00;0.62;12.57;9.33;;;20.30;22.90;;;;;;2232043;62;20415;-65
2022/12/04 02:03:02;0.00;0.00;0.62;0.00;0.00;0.62;17.67;11.53;;;20.30;22.90;;;;;;2232030;62;20392;-65
2022/12/04 02:05:46;0.00;0.00;0.62;0.00;0.00;0.62;16.60;10.93;;;20.30;22.90;;;;;;2232419;62;20371;-65
2022/12/04 02:08:31;0.00;0.00;0.62;0.00;0.00;0.62;14.30;11.00;;;20.30;22.90;;;;;;2231963;62;20439;-65
2022/12/04 02:11:29;0.00;0.00;0.62;0.00;0.00;0.62;12.90;9.70;;;20.30;22.90;;;;;;2229202;62;20400;-65
2022/12/04 02:14:25;0.00;0.00;0.62;0.00;0.00;0.62;15.50;11.60;;;20.20;23.30;;;;;;2231960;62;20388;-65
2022/12/04 02:17:21;0.00;0.00;0.62;0.00;0.00;0.62;13.93;11.00;;;20.20;22.80;;;;;;2232233;62;20392;-65
2022/12/04 02:20:27;0.00;0.00;0.62;0.00;0.00;0.62;16.83;11.07;;;20.20;22.80;;;;;;2232292;62;20887;-65
2022/12/04 02:23:58;0.00;0.00;0.62;0.00;0.00;0.62;14.70;10.73;;;20.20;22.70;;;;;;2231906;62;20459;-65
2022/12/04 02:26:50;0.00;0.00;0.62;0.00;0.00;0.62;15.87;12.03;;;20.20;22.70;;;;;;2232305;62;20451;-64
2022/12/04 02:29:47;0.00;0.00;0.62;0.00;0.00;0.62;14.70;10.70;;;20.10;23.20;;;;;;2229089;62;20455;-65
2022/12/04 02:32:41;0.00;0.00;0.62;0.00;0.00;0.62;16.80;12.03;;;20.10;22.70;;;;;;2231928;62;20424;-65
2022/12/04 02:35:29;0.00;0.00;0.62;0.00;0.00;0.62;12.87;9.50;;;20.10;22.70;;;;;;2232377;62;20411;-65
2022/12/04 02:38:23;0.00;0.00;0.62;0.00;0.00;0.62;15.20;10.80;;;20.10;22.60;;;;;;2231873;62;20364;-65
2022/12/04 02:41:15;0.00;0.00;0.62;0.00;0.00;0.62;13.40;10.00;;;20.10;22.60;;;;;;2232262;62;20451;-65
2022/12/04 02:44:03;0.00;0.00;0.62;0.00;0.00;0.62;14.30;9.50;;;20.10;22.60;;;;;;2231959;62;20415;-65
2022/12/04 02:46:56;0.00;0.00;0.62;0.00;0.00;0.62;11.77;9.70;;;20.00;22.60;;;;;;2231812;62;20432;-65
2022/12/04 02:49:46;0.00;0.00;0.62;0.00;0.00;0.62;15.90;10.57;;;20.00;22.60;;;;;;2229252;62;20939;-65
2022/12/04 02:52:35;0.00;0.00;0.62;0.00;0.00;0.62;12.73;8.90;;;20.00;23.10;;;;;;2231700;62;20431;-65
2022/12/04 02:55:26;0.00;0.00;0.62;0.00;0.00;0.62;12.80;9.67;;;20.00;22.60;;;;;;2232010;62;20372;-65
2022/12/04 02:58:15;0.00;0.00;0.62;0.00;0.00;0.62;14.50;10.60;;;20.00;23.10;;;;;;2232053;62;20351;-65
2022/12/04 03:01:18;0.00;0.00;0.62;0.00;0.00;0.62;12.27;10.30;;;19.90;22.50;;;;;;2231634;62;20368;-65
2022/12/04 03:04:11;0.00;0.00;0.62;0.00;0.00;0.62;12.50;9.70;;;19.90;22.50;;;;;;2232431;62;20493;-65
2022/12/04 03:06:59;0.00;0.00;0.62;0.00;0.00;0.62;14.10;10.23;;;19.90;22.50;;;;;;2231540;62;20434;-65
2022/12/04 03:09:49;0.00;0.00;0.62;0.00;0.00;0.62;12.83;8.60;;;19.90;23.00;;;;;;2232002;62;20427;-65
2022/12/04 03:12:42;0.00;0.00;0.62;0.00;0.00;0.62;11.90;8.80;;;19.90;22.50;;;;;;2232265;62;20527;-65
2022/12/04 03:15:32;0.00;0.00;0.62;0.00;0.00;0.62;13.20;9.80;;;19.90;22.50;;;;;;2231723;62;20375;-65
2022/12/04 03:18:24;0.00;0.00;0.62;0.00;0.00;0.62;14.03;9.73;;;19.90;23.00;;;;;;2232265;62;20443;-65
2022/12/04 03:21:15;0.00;0.00;0.62;0.00;0.00;0.62;11.60;8.87;;;19.90;22.50;;;;;;2231940;62;20887;-65
2022/12/04 03:24:09;0.00;0.00;0.62;0.00;0.00;0.62;12.67;10.13;;;19.80;22.40;;;;;;2231658;62;20391;-65
2022/12/04 03:27:01;0.00;0.00;0.62;0.00;0.00;0.62;11.30;8.70;;;19.80;22.40;;;;;;2232276;62;20474;-65
2022/12/04 03:29:52;0.00;0.00;0.62;0.00;0.00;0.62;12.50;9.60;;;19.80;22.70;;;;;;2231695;62;20371;-65
2022/12/04 03:32:45;0.00;0.00;0.62;0.00;0.00;0.62;11.40;8.80;;;19.80;22.40;;;;;;2231952;62;20402;-65
2022/12/04 03:35:39;0.00;0.00;0.62;0.00;0.00;0.62;10.57;8.60;;;19.80;22.40;;;;;;2231646;62;20367;-65
2022/12/04 03:38:34;0.00;0.00;0.62;0.00;0.00;0.62;12.50;9.93;;;19.80;22.40;;;;;;2231641;62;20340;-65
2022/12/04 03:41:27;0.00;0.00;0.62;0.00;0.00;0.62;11.57;9.07;;;19.80;22.50;;;;;;2232250;62;20372;-65
2022/12/04 03:44:18;0.00;0.00;0.62;0.00;0.00;0.62;11.50;9.83;;;19.70;22.40;;;;;;2231497;62;20432;-65
2022/12/04 03:47:08;0.00;0.00;0.62;0.00;0.00;0.62;14.73;10.00;;;19.80;22.50;;;;;;2231783;62;20423;-65
2022/12/04 03:49:59;0.00;0.00;0.62;0.00;0.00;0.62;10.33;8.40;;;19.70;22.40;;;;;;2231911;62;20363;-65
2022/12/04 03:52:51;0.00;0.00;0.62;0.00;0.00;0.62;11.13;9.33;;;19.70;22.40;;;;;;2231462;62;20531;-65
2022/12/04 03:55:45;0.00;0.00;0.62;0.00;0.00;0.62;12.87;9.03;;;19.70;22.40;;;;;;2232193;62;20762;-65
2022/12/04 03:58:34;0.00;0.00;0.62;0.00;0.00;0.62;13.60;9.90;;;19.70;22.40;;;;;;2231518;62;20364;-65
2022/12/04 04:01:24;0.00;0.00;0.62;0.00;0.00;0.62;11.93;9.87;;;19.70;22.40;;;;;;2231837;62;20372;-64
2022/12/04 04:04:14;0.00;0.00;0.62;0.00;0.00;0.62;11.80;9.63;;;19.60;22.30;;;;;;2232145;62;20430;-65
2022/12/04 04:07:10;0.00;0.00;0.62;0.00;0.00;0.62;12.30;9.43;;;19.60;22.30;;;;;;2228416;62;20391;-65
2022/12/04 04:10:02;0.00;0.00;0.62;0.00;0.00;0.62;12.67;9.50;;;19.70;22.40;;;;;;2231995;62;20423;-65
2022/12/04 04:25:20;0.00;0.00;0.62;0.00;0.00;0.62;14.07;10.13;;;19.60;22.30;;;;;;2232036;62;20840;-65
2022/12/04 04:28:30;0.00;0.00;0.62;0.00;0.00;0.62;12.83;9.27;;;19.60;22.30;;;;;;2231314;62;20390;-65
2022/12/04 04:31:25;0.00;0.00;0.62;0.00;0.00;0.62;14.73;10.43;;;19.50;22.20;;;;;;2231785;62;20387;-65
2022/12/04 04:34:19;0.00;0.00;0.62;0.00;0.00;0.62;10.73;8.93;;;19.50;22.30;;;;;;2231523;62;20439;-65
2022/12/04 04:37:14;0.00;0.00;0.62;0.00;0.00;0.62;16.70;11.00;;;19.50;22.30;;;;;;2231495;62;20602;-65
2022/12/04 04:40:09;0.00;0.00;0.62;0.00;0.00;0.62;16.10;10.50;;;19.50;22.30;;;;;;2232060;62;20873;-65
2022/12/04 04:43:03;0.00;0.00;0.62;0.00;0.00;0.62;15.87;11.90;;;19.50;22.30;;;;;;2231435;62;20391;-65
2022/12/04 04:45:56;0.00;0.00;0.62;0.00;0.00;0.62;13.93;10.00;;;19.50;22.30;;;;;;2231608;62;20430;-64
2022/12/04 04:48:46;0.00;0.00;0.62;0.00;0.00;0.62;13.60;10.40;;;19.40;22.20;;;;;;2232515;62;20629;-65
2022/12/04 04:51:33;0.00;0.00;0.62;0.00;0.00;0.62;12.57;9.77;;;19.40;22.20;;;;;;2232192;62;20367;-65
2022/12/04 04:54:19;0.00;0.00;0.62;0.00;0.00;0.62;13.97;10.60;;;19.40;22.20;;;;;;2232669;62;20387;-65
2022/12/04 04:57:04;0.00;0.00;0.62;0.00;0.00;0.62;11.97;9.80;;;19.40;22.20;;;;;;2232213;62;20398;-65
2022/12/04 04:59:49;0.00;0.00;0.62;0.00;0.00;0.62;14.17;9.80;;;19.40;22.30;;;;;;2232075;62;20913;-65
2022/12/04 05:02:35;0.00;0.00;0.62;0.00;0.00;0.62;13.43;10.40;;;19.40;22.20;;;;;;2232469;62;20382;-65
2022/12/04 05:05:20;0.00;0.00;0.62;0.00;0.00;0.62;13.87;10.50;;;19.40;22.30;;;;;;2232102;62;20990;-65
2022/12/04 05:08:05;0.00;0.00;0.62;0.00;0.00;0.62;13.70;9.40;;;19.40;22.20;;;;;;2232220;62;20383;-65
2022/12/04 05:10:50;0.00;0.00;0.62;0.00;0.00;0.62;13.83;10.17;;;19.40;22.30;;;;;;2232555;62;20366;-65
2022/12/04 05:13:35;0.00;0.00;0.62;0.00;0.00;0.62;12.17;10.67;;;19.40;22.20;;;;;;2232163;62;20403;-65
2022/12/04 05:16:19;0.00;0.00;0.62;0.00;0.00;0.62;15.10;11.17;;;19.30;22.10;;;;;;2232647;62;20429;-65
2022/12/04 05:22:09;0.00;0.00;0.62;0.00;0.00;0.62;14.77;10.83;;;19.30;22.20;;;;;;2231893;62;20371;-65
2022/12/04 05:24:54;0.00;0.00;0.62;0.00;0.00;0.62;14.50;10.90;;;19.30;22.20;;;;;;2232620;62;20347;-65
2022/12/04 05:27:39;0.00;0.00;0.62;0.00;0.00;0.62;13.17;11.03;;;19.30;22.20;;;;;;2232023;62;20439;-65
2022/12/04 05:30:24;0.00;0.00;0.62;0.00;0.00;0.62;14.27;11.80;;;19.30;22.20;;;;;;2229042;62;20778;-65
2022/12/04 05:33:09;0.00;0.00;0.62;0.00;0.00;0.62;14.17;11.33;;;19.30;22.20;;;;;;2232563;62;21020;-65
2022/12/04 05:36:01;0.00;0.00;0.62;0.00;0.00;0.62;15.97;11.03;;;19.30;22.20;;;;;;2232267;62;20428;-65
2022/12/04 05:38:45;0.00;0.00;0.62;0.00;0.00;0.62;12.97;10.63;;;19.30;22.20;;;;;;2232585;62;20937;-65
2022/12/04 05:41:30;0.00;0.00;0.62;0.00;0.00;0.62;15.70;12.10;;;19.30;22.20;;;;;;2232108;62;20431;-65
2022/12/04 05:44:14;0.00;0.00;0.62;0.00;0.00;0.62;12.73;11.30;;;19.30;22.20;;;;;;2231746;62;20406;-65
2022/12/04 05:46:59;0.00;0.00;0.62;0.00;0.00;0.62;12.37;10.13;;;19.20;22.20;;;;;;2232680;62;20463;-65
2022/12/04 05:49:43;0.00;0.00;0.62;0.00;0.00;0.62;15.70;11.33;;;19.20;22.20;;;;;;2231818;62;20970;-65
2022/12/04 05:52:30;0.00;0.00;0.62;0.00;0.00;0.62;14.03;11.10;;;19.20;22.20;;;;;;2232028;62;20892;-65
2022/12/04 05:55:14;0.00;0.00;0.62;0.00;0.00;0.62;15.27;12.17;;;19.20;22.70;;;;;;2232569;62;20853;-65
2022/12/04 05:57:59;0.00;0.00;0.62;0.00;0.00;0.62;15.13;11.33;;;19.20;22.20;;;;;;2231856;62;20419;-65
2022/12/04 06:00:43;0.00;0.00;0.62;0.00;0.00;0.62;15.20;11.87;;;19.20;22.20;;;;;;2232587;62;20371;-65
2022/12/04 06:03:28;0.00;0.00;0.62;0.00;0.00;0.62;13.70;10.90;;;19.20;22.20;;;;;;2232037;62;20668;-65
2022/12/04 06:06:15;0.00;0.00;0.62;0.00;0.00;0.62;16.43;11.80;;;19.20;22.20;;;;;;2231750;62;20379;-65
2022/12/04 06:09:03;0.00;0.00;0.62;0.00;0.00;0.62;14.70;11.40;;;19.10;22.10;;;;;;2232439;62;20414;-65
2022/12/04 06:11:49;0.00;0.00;0.62;0.00;0.00;0.62;14.70;11.83;;;19.10;22.10;;;;;;2231640;62;20770;-65
2022/12/04 06:14:33;0.00;0.00;0.62;0.00;0.00;0.62;16.13;12.37;;;19.10;22.10;;;;;;2232142;62;20387;-65
2022/12/04 06:17:18;0.00;0.00;0.62;0.00;0.00;0.62;14.93;12.13;;;19.10;22.10;;;;;;2232555;62;20908;-65
2022/12/04 06:20:04;0.00;0.00;0.62;0.00;0.00;0.62;14.77;11.40;;;19.10;22.10;;;;;;2231579;62;20440;-65
2022/12/04 06:22:49;0.00;0.00;0.62;0.00;0.00;0.62;15.77;12.43;;;19.10;22.10;;;;;;2232257;62;20399;-65
2022/12/04 06:25:35;0.00;0.00;0.62;0.00;0.00;0.62;15.70;11.70;;;19.10;22.20;;;;;;2232131;62;20854;-65
2022/12/04 06:28:20;0.00;0.00;0.62;0.00;0.00;0.62;15.20;11.37;;;19.10;22.20;;;;;;2231615;62;20987;-64
2022/12/04 06:31:09;0.00;0.00;0.62;0.00;0.00;0.62;16.97;12.83;;;19.10;22.10;;;;;;2232522;62;20924;-65
2022/12/04 06:33:55;0.00;0.00;0.62;0.00;0.00;0.62;13.73;11.27;;;19.10;22.20;;;;;;2231844;62;20390;-65
2022/12/04 06:36:40;0.00;0.00;0.62;0.00;0.00;0.62;14.73;12.23;;;19.10;22.20;;;;;;2232196;62;20416;-65
2022/12/04 06:39:24;0.00;0.00;0.62;0.00;0.00;0.62;13.67;11.20;;;19.10;22.20;;;;;;2232314;62;20684;-65
2022/12/04 06:42:10;0.00;0.00;0.62;0.00;0.00;0.62;14.90;10.60;;;19.10;22.20;;;;;;2231361;62;20363;-65
2022/12/04 06:44:55;0.00;0.00;0.62;0.00;0.00;0.62;14.37;12.47;;;19.00;22.10;;;;;;2232160;62;20892;-65
2022/12/04 06:47:39;0.00;0.00;0.62;0.00;0.00;0.62;15.77;12.73;;;19.00;22.10;;;;;;2231872;62;20406;-65
2022/12/04 06:50:24;0.00;0.00;0.62;0.00;0.00;0.62;15.00;11.77;;;19.00;22.20;;;;;;2231704;62;20375;-65
2022/12/04 06:53:09;0.00;0.00;0.62;0.00;0.00;0.62;15.33;12.27;;;19.00;22.20;;;;;;2232343;62;20435;-65
2022/12/04 06:55:53;0.00;0.00;0.62;0.00;0.00;0.62;14.43;11.90;;;19.00;22.10;;;;;;2231861;62;20367;-65
2022/12/04 06:58:40;0.00;0.00;0.62;0.00;0.00;0.62;13.30;10.70;;;19.00;22.20;;;;;;2231990;62;20415;-65
2022/12/04 07:01:27;0.00;0.00;0.62;0.00;0.00;0.62;12.27;10.30;;;19.00;22.20;;;;;;2232120;62;20391;-65
2022/12/04 07:04:12;0.00;0.00;0.62;0.00;0.00;0.62;14.10;11.00;;;19.00;22.20;;;;;;2231567;62;20426;-65
2022/12/04 07:06:57;0.00;0.00;0.62;0.00;0.00;0.62;12.03;9.97;;;19.00;22.20;;;;;;2231986;62;20455;-65
2022/12/04 07:09:42;0.00;0.00;0.62;0.00;0.00;0.62;13.40;11.00;;;19.00;22.20;;;;;;2231731;62;20396;-65
2022/12/04 07:12:27;0.00;0.00;0.62;0.00;0.00;0.62;14.67;11.50;;;19.00;22.20;;;;;;2231544;62;20375;-65
2022/12/04 07:15:13;0.00;0.00;0.62;0.00;0.00;0.62;14.10;11.23;;;18.90;22.10;;;;;;2231642;62;20367;-65
2022/12/04 07:17:58;0.00;0.00;0.62;0.00;0.00;0.62;14.37;10.50;;;18.90;22.10;;;;;;2232043;62;20492;-65
2022/12/04 07:20:43;0.00;0.00;0.62;0.00;0.00;0.62;14.50;10.80;;;18.90;22.20;;;;;;2231847;62;20871;-65
2022/12/04 07:23:28;0.00;0.00;0.62;0.00;0.00;0.62;14.33;12.27;;;18.90;22.10;;;;;;2232272;62;20391;-65
2022/12/04 07:26:13;0.00;0.00;0.62;0.00;0.00;0.62;14.20;10.97;;;18.90;22.10;;;;;;2231612;62;20947;-65
2022/12/04 07:28:58;0.00;0.00;0.62;0.00;0.00;0.62;13.70;11.10;;;18.90;22.10;;;;;;2231849;62;20395;-65
2022/12/04 07:31:44;0.00;0.00;0.62;0.00;0.00;0.62;13.53;11.03;;;18.90;22.10;;;;;;2231904;62;20920;-66
2022/12/04 07:34:29;0.00;0.00;0.62;0.00;0.00;0.62;13.73;10.80;;;18.90;22.20;;;;;;2231529;62;20407;-65
2022/12/04 07:37:14;0.00;0.00;0.62;0.00;0.00;0.62;14.73;11.07;;;18.90;22.20;;;;;;2232272;62;20455;-65
2022/12/04 07:39:59;0.00;0.00;0.62;0.00;0.00;0.62;13.00;11.20;;;18.90;22.20;;;;;;2231894;62;20375;-65
2022/12/04 07:42:43;0.00;0.00;0.62;0.00;0.00;0.62;16.10;12.30;;;18.90;22.20;;;;;;2231546;62;20484;-65
2022/12/04 07:45:28;0.00;0.00;0.62;0.00;0.00;0.62;12.93;11.10;;;18.80;22.20;;;;;;2232256;62;20375;-65
2022/12/04 07:48:14;0.00;0.00;0.62;0.00;0.00;0.62;12.87;10.07;;;18.80;22.20;;;;;;2231444;62;20432;-65
2022/12/04 07:51:03;0.00;0.00;0.62;0.00;0.00;0.62;14.20;11.10;;;18.80;22.20;;;;;;2231810;62;20423;-69
2022/12/04 07:53:50;0.00;0.00;0.62;0.00;0.00;0.62;14.27;10.83;;;18.80;22.20;;;;;;2232084;62;20432;-65
2022/12/04 07:56:34;0.00;0.00;0.62;0.00;0.00;0.62;13.30;10.90;;;18.80;22.20;;;;;;2231686;62;20757;-65
2022/12/04 07:59:19;0.00;0.00;0.62;0.00;0.00;0.62;13.73;11.57;;;18.80;22.20;;;;;;2231982;62;20381;-66
2022/12/04 08:02:05;0.00;0.00;0.62;0.00;0.00;0.62;13.60;10.13;;;18.80;22.20;;;;;;2231716;62;20367;-65
2022/12/04 08:04:51;0.00;0.00;0.62;0.00;0.00;0.62;14.70;11.10;;;18.80;22.30;;;;;;2231589;62;20362;-65
2022/12/04 08:07:36;0.00;0.00;0.62;0.00;0.00;0.62;13.53;9.70;;;18.80;22.30;;;;;;2235522;62;20382;-65
2022/12/04 08:10:20;0.00;0.00;0.62;0.00;0.00;0.62;12.27;9.70;;;18.80;22.30;;;;;;2233842;62;20370;-65
2022/12/04 08:13:05;0.00;0.00;0.62;0.00;0.00;0.62;12.23;10.40;;;18.80;22.30;;;;;;2235844;61;20475;-65
2022/12/04 08:15:50;0.00;0.00;0.62;0.00;0.00;0.62;14.67;9.80;;;18.80;22.30;;;;;;2235714;62;20577;-65
2022/12/04 08:18:36;0.00;0.00;0.62;0.00;0.00;0.62;12.67;10.03;;;18.80;22.40;;;;;;2235537;62;20414;-66
2022/12/04 08:21:25;0.00;0.00;0.62;0.00;0.00;0.62;13.20;10.27;;;18.80;22.40;;;;;;2235910;62;20532;-63
2022/12/04 08:24:10;0.00;0.00;0.62;0.00;0.00;0.62;12.63;9.60;;;18.70;22.30;;;;;;2236042;62;20425;-65
2022/12/04 08:26:55;0.00;0.00;0.62;0.00;0.00;0.62;10.80;9.43;;;18.80;22.40;;;;;;2236027;62;20942;-64
2022/12/04 08:29:39;0.00;0.00;0.62;0.00;0.00;0.62;12.47;10.63;;;18.80;23.00;;;;;;2236695;62;20437;-66
2022/12/04 08:32:24;0.00;0.00;0.62;0.00;0.00;0.62;10.77;9.63;;;18.80;22.50;;;;;;2235444;62;20527;-68
2022/12/04 08:35:08;0.00;0.00;0.62;0.00;0.00;0.62;13.37;10.80;;;18.80;22.50;;;;;;2236468;62;20467;-67
2022/12/04 08:37:54;0.00;0.00;0.62;0.00;0.00;0.62;13.37;11.17;;;18.70;22.40;;;;;;2236521;62;20362;-67
2022/12/04 08:40:39;0.00;0.00;0.62;0.00;0.00;0.62;13.50;10.30;;;18.80;22.50;;;;;;2235682;62;20377;-65
2022/12/04 08:43:23;0.00;0.00;0.62;0.00;0.00;0.62;14.07;11.13;;;18.80;22.50;;;;;;2236361;62;20394;-64
2022/12/04 08:46:10;0.00;0.00;0.62;0.00;0.00;0.62;12.70;11.00;;;18.70;22.60;;;;;;2235817;62;20937;-63
2022/12/04 08:48:56;0.00;0.00;0.62;0.00;0.00;0.62;12.03;10.03;;;18.70;23.10;;;;;;2235582;62;20379;-63
2022/12/04 08:51:41;0.00;0.00;0.62;0.00;0.00;0.62;13.60;10.30;;;18.80;22.60;;;;;;2236068;62;20374;-62
2022/12/04 08:54:27;0.00;0.00;0.62;0.00;0.00;0.62;12.20;9.93;;;18.80;22.60;;;;;;2232744;62;20425;-66
2022/12/04 08:57:11;0.00;0.00;0.62;0.00;0.00;0.62;11.73;9.90;;;18.80;22.60;;;;;;2236171;62;20366;-66
2022/12/04 08:59:56;0.00;0.00;0.62;0.00;0.00;0.62;13.87;9.80;;;18.70;22.50;;;;;;2236220;62;20828;-66
2022/12/04 09:02:41;0.00;0.00;0.62;0.00;0.00;0.62;11.83;9.37;;;18.80;22.50;;;;;;2235822;61;20930;-66
2022/12/04 09:05:26;0.00;0.00;0.62;0.00;0.00;0.62;14.63;10.60;;;18.80;22.50;;;;;;2235963;62;20422;-66
2022/12/04 09:08:12;0.00;0.00;0.62;0.00;0.00;0.62;12.80;10.27;;;18.80;22.50;;;;;;2236185;62;20950;-66
2022/12/04 09:11:03;0.00;0.00;0.62;0.00;0.00;0.62;13.43;10.00;;;18.80;22.50;;;;;;2235573;62;20418;-66
2022/12/04 09:13:50;0.00;0.00;0.62;0.00;0.00;0.62;13.83;10.33;;;18.80;22.50;;;;;;2236028;61;20403;-66
2022/12/04 09:16:35;0.00;0.00;0.62;0.00;0.00;0.62;11.80;10.07;;;18.80;22.50;;;;;;2235755;62;20378;-65
2022/12/04 09:19:20;0.00;0.00;0.62;0.00;0.00;0.62;13.47;11.10;;;18.80;22.40;;;;;;2236010;62;20363;-65
2022/12/04 09:22:05;0.00;0.00;0.62;0.00;0.00;0.62;12.73;10.53;;;18.80;22.40;;;;;;2236257;62;20365;-66
2022/12/04 09:24:50;0.00;0.00;0.62;0.00;0.00;0.62;12.43;10.73;;;18.80;22.40;;;;;;2235651;62;20808;-65
2022/12/04 09:27:37;0.00;0.00;0.62;0.00;0.00;0.62;14.20;11.17;;;18.80;22.40;;;;;;2235708;62;20390;-65
2022/12/04 09:30:21;0.00;0.00;0.62;0.00;0.00;0.62;13.70;10.80;;;18.80;22.40;;;;;;2236362;62;20390;-65
2022/12/04 09:33:06;0.00;0.00;0.62;0.00;0.00;0.62;12.43;11.00;;;18.80;22.40;;;;;;2235322;61;20397;-66
2022/12/04 09:35:51;0.00;0.00;0.62;0.00;0.00;0.62;12.53;10.40;;;18.80;22.40;;;;;;2235964;62;20378;-65
2022/12/04 09:38:36;0.00;0.00;0.62;0.00;0.00;0.62;12.23;10.43;;;18.80;22.40;;;;;;2236008;62;20414;-65
2022/12/04 09:42:00;0.00;0.00;0.62;0.00;0.00;0.62;12.13;10.03;;;18.80;22.40;;;;;;2235757;62;20426;-64
2022/12/04 09:44:52;0.00;0.00;0.62;0.00;0.00;0.62;14.70;10.33;;;18.80;22.40;;;;;;2236463;62;20374;-68
2022/12/04 09:47:43;0.00;0.00;0.62;0.00;0.00;0.62;13.77;11.43;;;18.90;22.50;;;;;;2235587;62;20390;-70
2022/12/04 09:50:36;0.00;0.00;0.62;0.00;0.00;0.62;12.60;10.60;;;18.90;22.50;;;;;;2235586;62;20903;-68
2022/12/04 09:53:26;0.00;0.00;0.62;0.00;0.00;0.62;12.40;9.63;;;18.80;22.40;;;;;;2235161;62;20402;-63
2022/12/04 09:56:18;0.00;0.00;0.62;0.00;0.00;0.62;12.37;9.57;;;18.90;22.50;;;;;;2235559;62;20363;-64
2022/12/04 09:59:12;0.00;0.00;0.62;0.00;0.00;0.62;13.10;10.50;;;18.90;22.60;;;;;;2236198;62;20358;-63
2022/12/04 10:02:14;0.00;0.00;0.62;0.00;0.00;0.62;11.00;8.93;;;18.90;22.70;;;;;;2235055;62;20363;-60
2022/12/04 10:04:59;0.00;0.00;0.62;0.00;0.00;0.62;12.37;9.93;;;18.90;22.70;;;;;;2236094;62;20422;-60
2022/12/04 10:07:53;0.00;0.00;0.62;0.00;0.00;0.62;10.47;9.00;;;18.90;22.70;;;;;;2235587;62;20915;-63
2022/12/04 10:10:41;0.00;0.00;0.62;0.00;0.00;0.62;11.07;8.77;;;18.90;22.70;;;;;;2235117;62;20378;-60
2022/12/04 10:14:03;0.00;0.00;0.62;0.00;0.00;0.62;12.03;9.10;;;18.90;22.70;;;;;;2232921;62;21154;-64
2022/12/04 10:17:13;0.00;0.00;0.62;0.00;0.00;0.62;10.10;8.80;;;18.90;22.70;;;;;;2235287;62;20395;-60
2022/12/04 10:20:10;0.00;0.00;0.62;0.00;0.00;0.62;11.37;8.37;;;19.00;22.80;;;;;;2235887;62;20780;-63
2022/12/04 10:23:10;0.00;0.00;0.62;0.00;0.00;0.62;9.80;7.80;;;19.00;22.80;;;;;;2235470;61;20391;-61
2022/12/04 10:25:57;0.00;0.00;0.62;0.00;0.00;0.62;10.77;8.10;;;19.00;22.80;;;;;;2235474;62;20895;-60
2022/12/04 10:28:49;0.00;0.00;0.62;0.00;0.00;0.62;9.07;7.97;;;19.00;22.80;;;;;;2235911;62;21144;-63
2022/12/04 10:31:36;0.00;0.00;0.62;0.00;0.00;0.62;9.80;8.00;;;19.00;22.80;;;;;;2235046;62;20375;-63
2022/12/04 10:34:27;0.00;0.00;0.62;0.00;0.00;0.62;9.60;8.60;;;19.00;22.80;;;;;;2235726;62;20386;-63
2022/12/04 10:37:13;0.00;0.00;0.62;0.00;0.00;0.62;10.60;7.73;;;19.00;22.80;;;;;;2235388;62;20970;-61
2022/12/04 10:40:11;0.00;0.00;0.62;0.00;0.00;0.62;8.90;7.90;;;19.10;22.90;;;;;;2235152;62;20370;-61
2022/12/04 10:43:03;0.00;0.00;0.62;0.00;0.00;0.62;10.03;8.50;;;19.10;22.90;;;;;;2232562;62;20390;-61
2022/12/04 10:45:48;0.00;0.00;0.62;0.00;0.00;0.62;10.67;7.90;;;19.10;22.90;;;;;;2234804;61;20378;-60
2022/12/04 10:48:39;0.00;0.00;0.62;0.00;0.00;0.62;10.90;9.03;;;19.10;22.90;;;;;;2234845;61;20530;-61
2022/12/04 10:52:03;0.00;0.00;0.62;0.00;0.00;0.62;10.30;8.13;;;19.10;22.80;;;;;;2294864;54;20452;-61
2022/12/04 10:54:57;0.00;0.00;0.62;0.00;0.00;0.62;10.20;8.03;;;19.20;22.90;;;;;;2232799;62;20410;-63
2022/12/04 11:02:39;0.00;0.00;0.62;0.00;0.00;0.62;11.80;8.67;;;19.20;23.50;;;;;;2461257;54;20743;-60
2022/12/04 11:05:28;0.00;0.00;0.62;0.00;0.00;0.62;10.70;8.83;;;19.20;23.00;;;;;;2231699;62;20371;-60
2022/12/04 11:08:24;0.00;0.00;0.62;0.00;0.00;0.62;10.70;8.27;;;19.20;23.00;;;;;;2233924;62;20394;-60
2022/12/04 11:11:13;0.00;0.00;0.62;0.00;0.00;0.62;9.60;8.10;;;19.20;23.00;;;;;;2235404;62;20375;-61
2022/12/04 11:14:12;0.00;0.00;0.62;0.00;0.00;0.62;9.00;7.33;;;19.20;23.00;;;;;;2235439;62;20419;-60
2022/12/04 11:17:02;0.00;0.00;0.62;0.00;0.00;0.62;9.20;7.20;;;19.20;23.00;;;;;;2231797;62;20895;-60